AirNav   Air Wisconsin Up To $57,000 Bonus
 
 1062 users online  

CA11 Bodad Airport
Chilcoot, California, USA

GOING TO CHILCOOT?


FAA INFORMATION EFFECTIVE 01 DECEMBER 2022

Location

FAA Identifier: CA11
Lat/Long: 39-59-49.9700N 120-13-00.6850W
39-59.832833N 120-13.011417W
39.9972139,-120.2168569
(estimated)
Elevation: 5909 ft. / 1801 m (estimated)
Time zone: UTC -8 (UTC -7 during Daylight Saving Time)
Zip code: 96109

Airport Operations

Airport use: Private use. Permission required prior to landing
Activation date: 03/2015
Control tower: no
ARTCC: OAKLAND CENTER
FSS: RENO FLIGHT SERVICE STATION
Attendance: 
Wind indicator: yes
Segmented circle: no

Airport Communications

WX AWOS-2 at O02 (12 nm SW): 119.35 (530-832-6942)
WX AWOS-3 at AHC (16 nm N): 118.825 (530-827-4520)

Nearby radio navigation aids

VOR radial/distance  VOR name  Freq  Var
AHCr173/16.5AMEDEE VOR/DME109.0017E
FMGr301/38.1MUSTANG VORTAC117.9016E

Airport Services

Runway Information

Runway 15/33

Dimensions: 1032 x 40 ft. / 315 x 12 m
Surface: turf
RUNWAY 15  RUNWAY 33
Latitude: 39-59.914500N39-59.751167N
Longitude: 120-13.042167W120-12.980667W
Elevation: 5909.0 ft.5906.0 ft.
Traffic pattern: leftleft
Touchdown point: yes, no lightsyes, no lights

Airport Ownership and Management from official FAA records

Ownership: Privately-owned
Owner: BO ELLIS
255 N SIERRA ST, #1213
RENO, NV 89501
Phone 208-255-6346
Manager: BO ELLIS
255 N SIERRA ST, #1213
RENO, NV 89501
Phone 208-255-6346

Airport Operational Statistics

Aircraft based on the field: 1
Single engine airplanes: 1
    

Additional Remarks

FOR CD CTC OAKLAND ARTCC AT 510-745-3380.

Instrument Procedures

There are no published instrument procedures at CA11.

Some nearby airports with instrument procedures:

O02 - Nervino Airport (12 nm SW)
KAHC - Amedee Army Airfield (16 nm N)
KRTS - Reno/Stead Airport (25 nm SE)
KSVE - Susanville Municipal Airport (28 nm NW)
KRNO - Reno/Tahoe International Airport (36 nm SE)
 
Loc | Ops | Rwys | IFR | FBO | Links
Com | Nav | Svcs | Stats | Notes
Aerial photo
No photo
 
Airport distance calculator
Flying to Bodad Airport? Find the distance to fly.

From to CA11

Sunrise and sunset
Times for 06-Dec-2022
 Local
(UTC-8)
 Zulu
(UTC)
Morning civil twilight06:3914:39
Sunrise07:0915:09
Sunset16:3500:35
Evening civil twilight17:0501:05

Current date and time
Zulu (UTC)  07-Dec-2022 03:28:57
Local (UTC-8)  06-Dec-2022 19:28:57
 
METAR
KRTS 
25nm SE 
070315Z AUTO 32005KT 10SM CLR M03/M04 A3009 RMK AO2
KSVE 
27nm NW 
070315Z AUTO 00000KT 7SM CLR M07/M07 A3011 RMK AO2
KRNO 
37nm SE 
070255Z 02006KT 10SM CLR 02/M03 A3007 RMK AO2 SLP193 T00171033 51013
KTRK 
41nm S 
070300Z AUTO 00000KT 3/4SM BR VV005 M07/M08 A3006 RMK AO2
KBLU 
48nm SW 
070252Z AUTO VRB03KT 10SM CLR 00/M02 A3004 RMK AO2 SLP187 T00001022 50002
TAF
KRNO 
37nm SE 
061735Z 0618/0718 VRB03KT P6SM SCT060
KTRK 
41nm S 
070215Z 0702/0724 00000KT 1/2SM FZFG VV002 FM071900 VRB03KT P6SM SCT050
NOTAMs
Click for the latest NOTAMs
NOTAMs are issued by the DoD/FAA and will open in a separate window not controlled by AirNav.

 

 
 

Would you like to see your business listed on this page?

 If your business provides an interesting product or service to pilots, flight crews, aircraft, or users of the Bodad Airport, you should consider listing it here.  To start the listing process, click on the button below
 
Add a business
 

Other Pages about Bodad Airport

Update a link
 
Copyright © AirNav, LLC. All rights reserved. Privacy Policy  Contact